Time;durP1;ratioP1;P1;durP2;ratioP2;P2;SDS_P1;SDS_P2;PMS_P1;PMS_P2;Temp;Humidity;BMP_temperature;BMP_pressure;BME280_temperature;BME280_humidity;BME280_pressure;Samples;Min_cycle;Max_cycle;Signal;HPM_P1;HPM_P2
2022/01/11 00:00:17;;;;;;;17.88;10.88;;;;;;;-0.11;100.00;103017.03;4754099;30;20028;-78
2022/01/11 00:02:44;;;;;;;15.82;10.85;;;;;;;-0.05;100.00;103032.63;4755051;30;20545;-78
2022/01/11 00:05:53;;;;;;;16.75;10.98;;;;;;;-0.07;100.00;103029.19;4754918;30;20032;-78
2022/01/11 00:08:06;;;;;;;18.52;11.00;;;;;;;-0.08;100.00;103023.03;4752256;30;20435;-78
2022/01/11 00:10:35;;;;;;;15.32;10.52;;;;;;;-0.13;100.00;103018.91;4751553;30;20155;-78
2022/01/11 00:13:01;;;;;;;16.50;10.82;;;;;;;-0.07;100.00;103022.09;4751511;30;20040;-79
2022/01/11 00:15:28;;;;;;;15.25;10.20;;;;;;;-0.07;100.00;103027.41;4750509;30;20053;-79
2022/01/11 00:17:55;;;;;;;18.70;10.52;;;;;;;-0.07;100.00;103019.44;4752918;30;20028;-79
2022/01/11 00:20:21;;;;;;;16.27;10.65;;;;;;;-0.05;100.00;103025.53;4749593;30;20036;-79
2022/01/11 00:25:27;;;;;;;18.67;10.30;;;;;;;-0.17;100.00;103010.25;4753230;30;20105;-78
2022/01/11 00:27:53;;;;;;;14.82;9.75;;;;;;;-0.10;100.00;103018.75;4754400;30;20468;-79
2022/01/11 00:30:19;;;;;;;17.15;10.40;;;;;;;-0.07;100.00;103021.25;4754773;30;20082;-78
2022/01/11 00:32:50;;;;;;;15.88;9.32;;;;;;;-0.08;100.00;103024.84;4753907;30;20118;-79
2022/01/11 00:35:17;;;;;;;16.73;10.18;;;;;;;-0.15;100.00;103021.63;4756429;30;20131;-79
2022/01/11 00:37:44;;;;;;;18.30;9.55;;;;;;;-0.14;100.00;103018.03;4740188;30;20028;-78
2022/01/11 00:40:10;;;;;;;15.23;9.95;;;;;;;-0.11;100.00;103022.34;4756230;30;20047;-78
2022/01/11 00:42:37;;;;;;;15.20;8.68;;;;;;;-0.09;100.00;103025.78;4753813;30;20036;-79
2022/01/11 00:45:10;;;;;;;13.73;9.35;;;;;;;-0.10;100.00;103024.03;4754145;30;20123;-78
2022/01/11 00:47:36;;;;;;;14.93;8.88;;;;;;;-0.10;100.00;103022.28;4755337;30;20459;-78
2022/01/11 00:50:07;;;;;;;14.48;9.35;;;;;;;-0.17;100.00;103015.53;4740436;30;20471;-78
2022/01/11 00:52:32;;;;;;;15.95;9.25;;;;;;;-0.08;100.00;103030.13;4743341;30;20101;-79
2022/01/11 00:54:58;;;;;;;15.73;9.05;;;;;;;-0.07;100.00;103027.41;4753114;30;20427;-79
2022/01/11 00:57:24;;;;;;;14.70;9.32;;;;;;;-0.09;100.00;103026.63;4753537;30;20076;-78
2022/01/11 00:59:49;;;;;;;15.00;8.82;;;;;;;-0.19;100.00;103013.94;4754168;30;20112;-78
2022/01/11 01:02:15;;;;;;;18.38;9.23;;;;;;;-0.11;100.00;103022.34;4753177;30;20071;-78
2022/01/11 01:04:40;;;;;;;14.18;9.55;;;;;;;-0.10;100.00;103021.41;4753498;30;20079;-78
2022/01/11 01:07:06;;;;;;;13.63;8.77;;;;;;;-0.07;100.00;103030.03;4753597;30;20105;-78
2022/01/11 01:09:41;;;;;;;14.85;8.82;;;;;;;-0.11;100.00;103023.19;4752724;30;20036;-78
2022/01/11 01:12:07;;;;;;;14.52;9.25;;;;;;;-0.11;100.00;103033.78;4754126;30;20036;-78
2022/01/11 01:14:33;;;;;;;14.65;9.55;;;;;;;-0.18;100.00;103019.13;4753316;30;20036;-79
2022/01/11 01:16:58;;;;;;;15.73;10.35;;;;;;;-0.16;100.00;103033.16;4753557;30;20043;-78
2022/01/11 01:19:27;;;;;;;13.60;9.38;;;;;;;-0.16;100.00;103038.44;4752633;30;20044;-79
2022/01/11 01:21:54;;;;;;;14.73;9.40;;;;;;;-0.22;100.00;103022.88;4754664;30;20166;-78
2022/01/11 01:24:20;;;;;;;15.90;10.23;;;;;;;-0.21;100.00;103037.81;4749536;30;20487;-78
2022/01/11 01:26:46;;;;;;;15.15;9.80;;;;;;;-0.21;100.00;103043.09;4762941;30;20036;-78
2022/01/11 01:29:11;;;;;;;17.45;10.25;;;;;;;-0.25;100.00;103029.16;4753087;30;20047;-78
2022/01/11 01:31:36;;;;;;;16.58;10.18;;;;;;;-0.21;100.00;103042.25;4752226;30;20032;-78
2022/01/11 01:34:02;;;;;;;18.80;10.77;;;;;;;-0.29;100.00;103032.88;4753413;30;20040;-79
2022/01/11 01:36:27;;;;;;;19.05;10.93;;;;;;;-0.24;100.00;103033.50;4751197;30;20132;-78
2022/01/11 01:38:53;;;;;;;17.73;10.75;;;;;;;-0.24;100.00;103037.94;4739299;30;20460;-79
2022/01/11 01:41:20;;;;;;;17.60;10.48;;;;;;;-0.31;100.00;103020.66;4753428;30;20036;-78
2022/01/11 01:43:52;;;;;;;16.77;10.80;;;;;;;-0.23;100.00;103023.81;4751648;30;20024;-78
2022/01/11 01:46:17;;;;;;;16.27;10.95;;;;;;;-0.24;100.00;103022.06;4755929;30;20079;-77
2022/01/11 01:48:43;;;;;;;16.20;10.85;;;;;;;-0.29;100.00;103014.38;4752202;30;20127;-79
2022/01/11 01:51:10;;;;;;;18.20;10.70;;;;;;;-0.28;100.00;103025.81;4752169;30;20114;-78
2022/01/11 01:53:38;;;;;;;18.02;11.00;;;;;;;-0.27;100.00;103016.94;4754983;30;20036;-78
2022/01/11 01:56:05;;;;;;;17.60;11.55;;;;;;;-0.28;100.00;103013.44;4753460;30;20023;-78
2022/01/11 01:58:31;;;;;;;18.13;11.25;;;;;;;-0.34;100.00;102989.91;4755494;30;20060;-78
2022/01/11 02:01:02;;;;;;;17.98;10.95;;;;;;;-0.35;100.00;102992.66;4750705;30;20499;-79
2022/01/11 02:03:31;;;;;;;17.70;10.13;;;;;;;-0.21;100.00;103027.22;4753127;30;20047;-78
2022/01/11 02:05:57;;;;;;;20.05;11.52;;;;;;;-0.31;100.00;103012.72;4754626;30;20042;-78
2022/01/11 02:08:26;;;;;;;18.58;11.15;;;;;;;-0.25;100.00;103023.00;4760169;30;20043;-79
2022/01/11 02:10:52;;;;;;;20.15;11.30;;;;;;;-0.25;100.00;103025.66;4740861;30;20033;-79
2022/01/11 02:13:18;;;;;;;23.42;11.13;;;;;;;-0.33;100.00;103011.94;4755353;30;20108;-79
2022/01/11 02:15:44;;;;;;;18.70;11.88;;;;;;;-0.29;100.00;103016.16;4755828;30;20044;-78
2022/01/11 02:18:22;;;;;;;19.38;11.63;;;;;;;-0.30;100.00;103010.03;4755964;30;20429;-79
2022/01/11 02:20:50;;;;;;;17.92;10.55;;;;;;;-0.27;100.00;103012.50;4757868;30;20443;-78
2022/01/11 02:23:17;;;;;;;16.42;10.77;;;;;;;-0.25;100.00;103012.44;4757698;30;20040;-78
2022/01/11 02:25:43;;;;;;;18.50;11.13;;;;;;;-0.28;100.00;103018.72;4772909;30;20100;-78
2022/01/11 02:28:12;;;;;;;23.00;11.75;;;;;;;-0.29;100.00;103009.09;4770532;30;20444;-78
2022/01/11 02:30:37;;;;;;;17.33;11.60;;;;;;;-0.28;100.00;103009.94;4757627;30;20036;-78
2022/01/11 02:33:06;;;;;;;18.10;11.45;;;;;;;-0.28;100.00;103015.22;4758391;30;20082;-78
2022/01/11 02:35:32;;;;;;;18.35;11.63;;;;;;;-0.28;100.00;103010.78;4756557;30;20063;-78
2022/01/11 02:37:57;;;;;;;17.48;11.80;;;;;;;-0.32;100.00;103000.44;4757418;30;20028;-78
2022/01/11 02:40:23;;;;;;;17.92;11.57;;;;;;;-0.26;100.00;103013.38;4753010;30;20032;-79
2022/01/11 02:42:48;;;;;;;20.73;12.18;;;;;;;-0.25;100.00;103004.50;4751516;30;20040;-78
2022/01/11 02:45:16;;;;;;;19.13;11.40;;;;;;;-0.18;100.00;103000.63;4764338;30;20402;-78
2022/01/11 02:47:42;;;;;;;19.48;12.15;;;;;;;-0.48;100.00;102950.06;4752889;30;20036;-79
2022/01/11 02:50:08;;;;;;;18.02;11.55;;;;;;;-0.05;100.00;103007.00;4752534;30;20114;-78
2022/01/11 02:52:34;;;;;;;17.77;12.02;;;;;;;0.01;100.00;103008.50;4752560;30;20040;-78
2022/01/11 02:55:00;;;;;;;20.75;12.40;;;;;;;0.02;100.00;103006.72;4752785;30;20371;-78
2022/01/11 02:57:25;;;;;;;18.63;12.68;;;;;;;0.09;100.00;103002.81;4754325;30;20125;-79
2022/01/11 02:59:51;;;;;;;18.40;11.90;;;;;;;0.12;100.00;103003.53;4755513;30;20036;-78
2022/01/11 03:02:16;;;;;;;19.23;11.85;;;;;;;0.07;100.00;102991.47;4751443;30;20044;-79
2022/01/11 03:04:43;;;;;;;19.13;12.48;;;;;;;0.16;100.00;103005.06;4751581;30;20051;-79
2022/01/11 03:07:09;;;;;;;20.30;11.68;;;;;;;0.21;100.00;103004.88;4750354;30;20067;-79
2022/01/11 03:09:49;;;;;;;20.20;11.98;;;;;;;0.26;100.00;103000.16;4751083;30;20131;-79
2022/01/11 03:12:15;;;;;;;18.63;11.60;;;;;;;0.19;100.00;102983.75;4751585;30;20047;-78
2022/01/11 03:14:40;;;;;;;18.15;11.85;;;;;;;0.36;100.00;102997.91;4748399;30;20081;-79
2022/01/11 03:17:05;;;;;;;18.17;11.68;;;;;;;0.36;100.00;102993.47;4752808;30;20083;-79
2022/01/11 03:19:31;;;;;;;19.45;12.77;;;;;;;0.36;100.00;102984.66;4750171;30;20390;-78
2022/01/11 03:21:56;;;;;;;20.95;12.25;;;;;;;0.26;100.00;102973.69;4770462;30;20110;-79
2022/01/11 03:24:21;;;;;;;17.67;11.43;;;;;;;0.38;100.00;102988.97;4769104;30;20043;-79
2022/01/11 03:26:47;;;;;;;20.02;11.48;;;;;;;0.40;100.00;102984.44;4719873;30;20032;-78
2022/01/11 03:29:12;;;;;;;21.00;12.60;;;;;;;0.44;100.00;102982.50;4719066;30;20043;-79
2022/01/11 03:31:38;;;;;;;21.90;12.48;;;;;;;0.34;100.00;102960.94;4744886;30;20040;-79
2022/01/11 03:34:03;;;;;;;20.13;11.70;;;;;;;0.49;100.00;102984.91;4737784;30;20032;-78
2022/01/11 03:36:29;;;;;;;15.60;10.95;;;;;;;0.47;100.00;102974.41;4751277;30;20043;-79
2022/01/11 03:38:54;;;;;;;21.27;12.38;;;;;;;0.50;100.00;102973.34;4751073;30;20055;-79
2022/01/11 03:41:20;;;;;;;20.33;10.65;;;;;;;0.47;100.00;102961.16;4722977;30;20043;-79
2022/01/11 03:43:46;;;;;;;17.02;11.75;;;;;;;0.49;100.00;102963.72;4725788;30;20044;-79
2022/01/11 03:46:11;;;;;;;15.20;10.77;;;;;;;0.49;100.00;102967.22;4771840;30;20040;-78
2022/01/11 03:48:36;;;;;;;20.48;11.77;;;;;;;0.53;100.00;102983.78;4765816;30;20033;-78
2022/01/11 03:51:03;;;;;;;18.40;11.98;;;;;;;0.51;100.00;102978.59;4753797;30;20036;-79
2022/01/11 03:53:33;;;;;;;18.63;11.77;;;;;;;0.57;100.00;102977.41;4752849;30;20036;-78
2022/01/11 03:56:11;;;;;;;18.45;11.55;;;;;;;0.54;100.00;102973.13;4767365;30;20105;-77
2022/01/11 03:58:37;;;;;;;17.08;11.25;;;;;;;0.57;100.00;102974.78;4753859;30;20121;-79
2022/01/11 04:01:03;;;;;;;15.32;10.90;;;;;;;0.54;100.00;102970.47;4758469;30;20031;-79
2022/01/11 04:03:29;;;;;;;17.50;11.07;;;;;;;0.52;100.00;102959.09;4727731;30;20373;-78
2022/01/11 04:05:55;;;;;;;20.10;11.93;;;;;;;0.51;100.00;102967.16;4760251;30;20047;-79
2022/01/11 04:08:22;;;;;;;17.45;11.88;;;;;;;0.53;100.00;102960.84;4759081;30;20507;-77
2022/01/11 04:10:48;;;;;;;18.73;11.48;;;;;;;0.54;100.00;102973.13;4761602;30;20036;-78
2022/01/11 04:13:14;;;;;;;18.20;12.05;;;;;;;0.51;100.00;102956.53;4761297;30;20040;-78
2022/01/11 04:15:39;;;;;;;20.10;11.90;;;;;;;0.45;100.00;102947.13;4740092;30;20047;-79
2022/01/11 04:18:05;;;;;;;19.08;11.82;;;;;;;0.55;100.00;102977.50;4741090;30;20099;-79
2022/01/11 04:20:30;;;;;;;19.88;11.63;;;;;;;0.56;100.00;102970.38;4754653;30;20044;-79
2022/01/11 04:22:55;;;;;;;17.40;11.90;;;;;;;0.57;100.00;102951.78;4756053;30;20055;-79
2022/01/11 04:25:21;;;;;;;18.30;11.65;;;;;;;0.61;100.00;102960.41;4754325;30;20040;-79
2022/01/11 04:27:46;;;;;;;19.20;11.38;;;;;;;0.61;100.00;102950.69;4756451;30;20467;-79
2022/01/11 04:30:12;;;;;;;18.15;11.38;;;;;;;0.64;100.00;102942.56;4755837;30;20115;-78
2022/01/11 04:32:38;;;;;;;17.20;10.95;;;;;;;0.62;100.00;102944.44;4756232;30;20047;-78
2022/01/11 04:35:05;;;;;;;19.17;11.60;;;;;;;0.60;100.00;102916.34;4727076;30;20063;-79
2022/01/11 04:37:30;;;;;;;17.55;10.95;;;;;;;0.59;100.00;102912.81;4755667;30;20095;-79
2022/01/11 04:39:55;;;;;;;21.98;12.07;;;;;;;0.68;100.00;102930.00;4741485;30;20068;-79
2022/01/11 04:42:21;;;;;;;22.45;12.15;;;;;;;0.67;100.00;102928.31;4756312;30;20063;-78
2022/01/11 04:44:46;;;;;;;17.90;11.05;;;;;;;0.72;100.00;102936.00;4756457;30;20431;-78
2022/01/11 04:47:11;;;;;;;17.38;11.60;;;;;;;0.74;100.00;102939.44;4757484;30;20440;-78
2022/01/11 04:49:37;;;;;;;19.88;11.57;;;;;;;0.74;100.00;102942.94;4768176;30;20526;-78
2022/01/11 04:52:03;;;;;;;19.20;11.98;;;;;;;0.69;100.00;102940.50;4762869;30;20042;-78
2022/01/11 04:54:28;;;;;;;21.42;12.05;;;;;;;0.65;100.00;102938.97;4766605;30;20047;-78
2022/01/11 04:56:54;;;;;;;20.60;11.75;;;;;;;0.77;100.00;102961.31;4756325;30;20406;-79
2022/01/11 04:59:19;;;;;;;16.90;11.18;;;;;;;0.67;100.00;102941.56;4764024;30;20067;-79
2022/01/11 05:01:45;;;;;;;17.05;11.70;;;;;;;0.84;100.00;102959.19;4759872;30;20563;-79
2022/01/11 05:04:12;;;;;;;20.98;12.25;;;;;;;0.81;100.00;102946.09;4743244;30;20037;-79
2022/01/11 05:06:38;;;;;;;20.30;12.02;;;;;;;0.78;100.00;102946.28;4737400;30;20050;-79
2022/01/11 05:09:03;;;;;;;22.80;12.07;;;;;;;0.87;100.00;102966.97;4754364;30;20123;-78
2022/01/11 05:11:29;;;;;;;21.30;11.75;;;;;;;0.66;100.00;102927.47;4755627;30;20486;-79
2022/01/11 05:13:54;;;;;;;20.08;12.02;;;;;;;0.90;100.00;102959.72;4752183;30;20068;-79
2022/01/11 05:16:20;;;;;;;18.40;11.40;;;;;;;0.86;100.00;102944.03;4768219;30;20048;-80
2022/01/11 05:18:45;;;;;;;25.40;12.50;;;;;;;0.94;100.00;102950.66;4754482;30;20375;-80
2022/01/11 05:21:11;;;;;;;22.55;12.15;;;;;;;0.91;100.00;102942.00;4739572;30;20460;-80
2022/01/11 05:23:36;;;;;;;19.67;11.32;;;;;;;0.94;100.00;102944.50;4756068;30;20482;-79
2022/01/11 05:26:03;;;;;;;22.35;12.02;;;;;;;0.96;100.00;102941.75;4754583;30;20044;-79
2022/01/11 05:28:29;;;;;;;18.67;11.85;;;;;;;0.97;100.00;102944.34;4754910;30;20036;-80
2022/01/11 05:30:54;;;;;;;17.52;12.30;;;;;;;0.92;100.00;102928.66;4740534;30;20803;-80
2022/01/11 05:33:20;;;;;;;19.10;11.77;;;;;;;1.00;100.00;102940.66;4755623;30;20107;-79
2022/01/11 05:35:46;;;;;;;18.80;10.75;;;;;;;1.01;100.00;102934.41;4753260;30;20041;-80
2022/01/11 05:38:12;;;;;;;19.00;12.18;;;;;;;1.00;100.00;102933.56;4744916;30;20540;-80
2022/01/11 05:40:37;;;;;;;18.02;11.48;;;;;;;1.02;100.00;102938.78;4756166;30;20032;-80
2022/01/11 05:43:03;;;;;;;18.55;11.10;;;;;;;1.02;100.00;102936.13;4755818;30;20123;-78
2022/01/11 05:45:28;;;;;;;20.35;11.73;;;;;;;0.91;100.00;102902.25;4756589;30;20096;-80
2022/01/11 05:47:54;;;;;;;19.15;11.35;;;;;;;1.02;100.00;102925.50;4760323;30;20134;-80
2022/01/11 05:50:21;;;;;;;18.75;10.05;;;;;;;1.02;100.00;102923.72;4761367;30;20094;-80
2022/01/11 05:52:48;;;;;;;19.27;10.90;;;;;;;0.98;100.00;102913.38;4753881;30;20031;-82
2022/01/11 05:55:15;;;;;;;22.58;11.65;;;;;;;1.02;100.00;102920.22;4767727;30;20470;-83
2022/01/11 05:57:43;;;;;;;19.38;12.20;;;;;;;1.01;100.00;102918.50;4761184;30;20538;-80
2022/01/11 06:00:14;;;;;;;17.27;10.40;;;;;;;0.97;100.00;102911.69;4753067;30;20077;-80
2022/01/11 06:02:42;;;;;;;22.17;12.20;;;;;;;1.05;100.00;102917.38;4756415;30;20036;-79
2022/01/11 06:05:08;;;;;;;16.58;10.38;;;;;;;1.02;100.00;102912.25;4758205;30;20051;-79
2022/01/11 06:07:33;;;;;;;20.60;11.23;;;;;;;1.02;100.00;102902.50;4759696;30;20434;-79
2022/01/11 06:09:59;;;;;;;19.83;11.57;;;;;;;1.04;100.00;102891.84;4734692;30;20055;-80
2022/01/11 06:12:24;;;;;;;18.48;10.90;;;;;;;1.06;100.00;102898.75;4746939;30;20048;-80
2022/01/11 06:14:49;;;;;;;23.00;11.40;;;;;;;1.07;100.00;102897.81;4747380;30;20028;-79
2022/01/11 06:17:15;;;;;;;20.58;11.50;;;;;;;1.02;100.00;102877.78;4749300;30;20435;-80
2022/01/11 06:19:40;;;;;;;16.85;10.40;;;;;;;1.01;100.00;102884.91;4746430;30;20459;-79
2022/01/11 06:22:06;;;;;;;19.00;11.52;;;;;;;1.03;100.00;102883.03;4746127;30;20127;-80
2022/01/11 06:24:31;;;;;;;16.20;10.50;;;;;;;1.06;100.00;102888.16;4731920;30;20048;-79
2022/01/11 06:26:56;;;;;;;21.70;10.90;;;;;;;1.07;100.00;102897.81;4750079;30;20695;-79
2022/01/11 06:29:22;;;;;;;17.80;10.30;;;;;;;0.95;100.00;102901.13;4747113;30;20036;-79
2022/01/11 06:31:47;;;;;;;19.02;10.55;;;;;;;0.94;100.00;102888.84;4734962;30;20070;-80
2022/01/11 06:34:13;;;;;;;18.35;10.98;;;;;;;0.91;100.00;102876.59;4744832;30;20028;-79
2022/01/11 06:36:38;;;;;;;20.52;10.45;;;;;;;0.71;100.00;102855.66;4746318;30;20032;-80
2022/01/11 06:39:04;;;;;;;16.27;10.73;;;;;;;0.91;100.00;102891.66;4747541;30;20353;-80
2022/01/11 06:41:29;;;;;;;17.45;10.63;;;;;;;0.90;100.00;102885.50;4746612;30;20372;-80
2022/01/11 06:43:55;;;;;;;20.42;10.57;;;;;;;0.65;100.00;102833.00;4749363;30;20040;-80
2022/01/11 06:46:23;;;;;;;21.70;11.85;;;;;;;1.09;100.00;102868.56;4730349;30;20109;-80
2022/01/11 06:48:49;;;;;;;18.38;11.50;;;;;;;1.14;100.00;102867.34;4759814;30;20035;-80
2022/01/11 06:51:15;;;;;;;26.60;11.48;;;;;;;1.17;100.00;102861.03;4747508;30;20032;-79
2022/01/11 06:53:40;;;;;;;18.55;11.15;;;;;;;1.22;100.00;102876.66;4746796;30;20093;-80
2022/01/11 06:56:06;;;;;;;18.95;10.73;;;;;;;1.23;100.00;102878.41;4740418;30;20448;-79
2022/01/11 06:58:31;;;;;;;23.13;11.32;;;;;;;1.25;100.00;102880.00;4759676;30;20051;-80
2022/01/11 07:00:56;;;;;;;19.13;10.05;;;;;;;1.22;100.00;102868.72;4744591;30;20051;-80
2022/01/11 07:03:22;;;;;;;19.30;10.65;;;;;;;1.21;100.00;102865.22;4760308;30;20047;-79
2022/01/11 07:05:48;;;;;;;26.40;10.82;;;;;;;1.25;100.00;102869.38;4734749;30;20123;-79
2022/01/11 07:08:14;;;;;;;20.67;10.60;;;;;;;1.28;100.00;102860.41;4758621;30;20029;-80
2022/01/11 07:10:39;;;;;;;19.00;11.48;;;;;;;1.28;100.00;102877.16;4755844;30;20040;-79
2022/01/11 07:13:05;;;;;;;17.92;10.50;;;;;;;1.26;100.00;102880.84;4749669;30;20533;-80
2022/01/11 07:15:31;;;;;;;19.40;11.27;;;;;;;1.28;100.00;102879.81;4747468;30;20031;-80
2022/01/11 07:17:57;;;;;;;23.45;11.55;;;;;;;1.15;100.00;102847.00;4752466;30;20116;-79
2022/01/11 07:20:23;;;;;;;25.48;11.77;;;;;;;1.21;100.00;102867.88;4751285;30;20115;-79
2022/01/11 07:22:49;;;;;;;22.10;11.65;;;;;;;1.26;100.00;102868.47;4752230;30;20040;-81
2022/01/11 07:25:15;;;;;;;18.60;10.50;;;;;;;1.03;100.00;102869.78;4751995;30;20043;-80
2022/01/11 07:27:40;;;;;;;26.80;11.70;;;;;;;1.16;100.00;102880.53;4734340;30;20040;-80
2022/01/11 07:30:07;;;;;;;20.48;11.18;;;;;;;0.99;100.00;102857.59;4732800;30;20045;-80
2022/01/11 07:32:35;;;;;;;18.25;10.73;;;;;;;1.18;100.00;102889.25;4734121;30;20349;-80
2022/01/11 07:35:01;;;;;;;20.17;11.43;;;;;;;1.19;100.00;102888.28;4739730;30;20044;-80
2022/01/11 07:37:26;;;;;;;22.73;11.35;;;;;;;1.18;100.00;102890.09;4754376;30;20089;-80
2022/01/11 07:39:52;;;;;;;20.23;11.15;;;;;;;1.25;100.00;102905.66;4754394;30;20043;-80
2022/01/11 07:42:17;;;;;;;20.17;11.73;;;;;;;1.22;100.00;102895.22;4751498;30;20055;-80
2022/01/11 07:44:43;;;;;;;23.77;11.35;;;;;;;1.28;100.00;102913.44;4753839;30;20044;-80
2022/01/11 07:47:09;;;;;;;22.17;11.00;;;;;;;1.14;100.00;102896.53;4751217;30;20055;-79
2022/01/11 07:49:34;;;;;;;19.85;11.45;;;;;;;1.10;100.00;102886.19;4749891;30;20036;-80
2022/01/11 07:52:00;;;;;;;21.58;12.05;;;;;;;1.24;100.00;102903.97;4753689;30;20040;-80
2022/01/11 07:54:25;;;;;;;20.02;10.93;;;;;;;1.07;100.00;102894.31;4755005;30;20046;-80
2022/01/11 07:56:51;;;;;;;19.52;11.40;;;;;;;1.14;100.00;102895.66;4753906;30;20111;-80
2022/01/11 07:59:16;;;;;;;18.77;11.70;;;;;;;1.17;100.00;102900.81;4752891;30;20056;-80
2022/01/11 08:01:42;;;;;;;20.60;11.55;;;;;;;1.09;100.00;102895.94;4756116;30;20055;-80
2022/01/11 08:04:07;;;;;;;19.63;12.00;;;;;;;1.14;100.00;102909.78;4767579;30;20040;-79
2022/01/11 08:06:35;;;;;;;19.73;11.85;;;;;;;1.15;100.00;102907.97;4751414;30;20118;-80
2022/01/11 08:09:01;;;;;;;19.58;11.73;;;;;;;1.17;100.00;102909.63;4769723;30;20044;-80
2022/01/11 08:11:27;;;;;;;27.02;12.45;;;;;;;1.22;100.00;102912.00;4760131;30;20474;-80
2022/01/11 08:13:53;;;;;;;20.40;12.80;;;;;;;1.20;100.00;102908.59;4753291;30;20506;-80
2022/01/11 08:16:18;;;;;;;23.65;12.68;;;;;;;1.16;100.00;102899.09;4755326;30;20072;-80
2022/01/11 08:18:43;;;;;;;23.48;12.65;;;;;;;1.21;100.00;102912.94;4740883;30;20036;-80
2022/01/11 08:21:09;;;;;;;23.17;12.55;;;;;;;1.28;100.00;102927.56;4753516;30;20478;-80
2022/01/11 08:23:34;;;;;;;23.13;12.30;;;;;;;1.24;100.00;102917.22;4755533;30;20064;-80
2022/01/11 08:26:00;;;;;;;24.67;12.68;;;;;;;1.25;100.00;102903.00;4751530;30;20035;-80
2022/01/11 08:28:25;;;;;;;23.70;13.13;;;;;;;1.22;100.00;102896.09;4766207;30;20095;-80
2022/01/11 08:30:52;;;;;;;23.98;13.45;;;;;;;1.26;100.00;102896.75;4755802;30;20052;-80
2022/01/11 08:33:17;;;;;;;25.45;12.85;;;;;;;1.34;100.00;102902.50;4757271;30;20044;-80
2022/01/11 08:35:43;;;;;;;22.73;13.07;;;;;;;1.24;100.00;102888.06;4756936;30;20059;-80
2022/01/11 08:38:08;;;;;;;25.75;12.68;;;;;;;1.36;100.00;102903.28;4742706;30;20115;-80
2022/01/11 08:40:34;;;;;;;24.67;13.10;;;;;;;1.34;100.00;102895.41;4756105;30;20448;-80
2022/01/11 08:42:59;;;;;;;25.42;13.57;;;;;;;1.32;100.00;102891.13;4742893;30;20484;-80
2022/01/11 08:45:25;;;;;;;22.77;12.70;;;;;;;1.42;100.00;102900.25;4742914;30;20116;-79
2022/01/11 08:47:50;;;;;;;24.33;12.82;;;;;;;1.45;100.00;102886.81;4769173;30;20039;-80
2022/01/11 08:50:16;;;;;;;25.30;12.70;;;;;;;1.50;100.00;102879.47;4774259;30;20371;-80
2022/01/11 08:52:42;;;;;;;25.38;12.38;;;;;;;1.61;100.00;102887.63;4773534;30;20093;-80
2022/01/11 08:55:11;;;;;;;24.20;13.55;;;;;;;1.57;100.00;102885.25;4774641;30;20048;-80
2022/01/11 08:57:37;;;;;;;26.42;12.85;;;;;;;1.53;100.00;102873.13;4758334;30;20186;-80
2022/01/11 09:00:09;;;;;;;23.98;13.05;;;;;;;1.58;100.00;102879.00;4754637;30;20043;-80
2022/01/11 09:02:37;;;;;;;25.83;14.80;;;;;;;1.55;100.00;102874.72;4750470;30;21639;-80
2022/01/11 09:05:03;;;;;;;25.33;13.07;;;;;;;1.56;100.00;102870.28;4751949;30;20040;-80
2022/01/11 09:07:28;;;;;;;26.02;13.07;;;;;;;1.52;100.00;102872.25;4750715;30;20361;-80
2022/01/11 09:09:54;;;;;;;22.80;13.02;;;;;;;1.41;100.00;102858.75;4746682;30;20043;-79
2022/01/11 09:12:19;;;;;;;24.25;12.88;;;;;;;1.50;100.00;102875.97;4758924;30;20040;-80
2022/01/11 09:14:45;;;;;;;24.55;13.70;;;;;;;1.48;100.00;102885.78;4757665;30;20582;-80
2022/01/11 09:17:11;;;;;;;26.77;14.07;;;;;;;1.40;100.00;102883.59;4762914;30;20040;-80
2022/01/11 09:19:37;;;;;;;22.23;13.05;;;;;;;1.48;100.00;102896.41;4743639;30;20033;-81
2022/01/11 09:22:02;;;;;;;25.75;13.75;;;;;;;1.48;100.00;102902.56;4763406;30;20535;-81
2022/01/11 09:24:31;;;;;;;28.98;13.45;;;;;;;1.35;100.00;102883.84;4760396;30;20487;-80
2022/01/11 09:26:58;;;;;;;24.00;13.45;;;;;;;1.43;100.00;102891.38;4725366;30;20480;-81
2022/01/11 09:29:25;;;;;;;27.60;13.82;;;;;;;1.45;100.00;102891.25;4751928;30;20036;-80
2022/01/11 09:31:50;;;;;;;28.58;13.68;;;;;;;1.41;100.00;102888.78;4753362;30;20028;-79
2022/01/11 09:34:16;;;;;;;22.75;13.05;;;;;;;1.39;100.00;102890.69;4737960;30;20032;-79
2022/01/11 09:36:42;;;;;;;26.17;13.35;;;;;;;1.38;100.00;102893.41;4754506;30;20032;-80
2022/01/11 09:39:07;;;;;;;24.92;13.32;;;;;;;1.31;100.00;102877.00;4756072;30;20031;-79
2022/01/11 09:41:34;;;;;;;26.10;13.50;;;;;;;1.28;100.00;102878.97;4752392;30;20198;-79
2022/01/11 09:44:00;;;;;;;27.83;13.88;;;;;;;1.36;100.00;102879.41;4736074;30;20391;-80
2022/01/11 09:46:25;;;;;;;28.00;13.63;;;;;;;1.39;100.00;102888.03;4761097;30;20077;-80
2022/01/11 09:48:51;;;;;;;21.52;13.43;;;;;;;1.42;100.00;102886.97;4753817;30;20047;-80
2022/01/11 09:51:16;;;;;;;30.67;13.80;;;;;;;1.37;100.00;102878.47;4749107;30;20123;-79
2022/01/11 09:53:42;;;;;;;26.05;14.10;;;;;;;1.41;100.00;102878.19;4750743;30;20032;-79
2022/01/11 09:56:09;;;;;;;24.48;13.30;;;;;;;1.40;100.00;102872.97;4750190;30;20047;-80
2022/01/11 09:58:35;;;;;;;23.52;14.23;;;;;;;1.38;100.00;102870.41;4751171;30;20060;-80
2022/01/11 10:01:03;;;;;;;26.40;14.00;;;;;;;1.34;100.00;102862.72;4751336;30;20371;-79
2022/01/11 10:03:28;;;;;;;24.95;13.95;;;;;;;1.42;100.00;102865.75;4753049;30;20063;-80
2022/01/11 10:05:54;;;;;;;26.85;13.38;;;;;;;1.36;100.00;102859.03;4753172;30;20028;-80
2022/01/11 10:08:26;;;;;;;27.27;13.90;;;;;;;1.36;100.00;102842.28;4749651;30;20040;-80
2022/01/11 10:10:52;;;;;;;24.95;14.63;;;;;;;1.48;100.00;102864.56;4744688;30;20035;-81
2022/01/11 10:13:46;;;;;;;26.73;14.27;;;;;;;1.41;100.00;102846.34;4750606;30;20121;-79
2022/01/11 10:16:28;;;;;;;30.85;14.30;;;;;;;1.59;100.00;102851.50;4752041;30;20047;-79
2022/01/11 10:18:55;;;;;;;29.90;14.82;;;;;;;1.54;100.00;102845.63;4736211;30;20036;-80
2022/01/11 10:21:34;;;;;;;27.23;14.30;;;;;;;1.54;100.00;102858.91;4734681;30;20078;-80
2022/01/11 10:24:19;;;;;;;26.75;14.50;;;;;;;1.53;100.00;102852.75;4741507;30;20032;-79
2022/01/11 10:26:45;;;;;;;28.75;14.63;;;;;;;1.57;100.00;102843.66;4751293;30;20059;-79
2022/01/11 10:29:26;;;;;;;30.20;15.95;;;;;;;1.54;100.00;102832.38;4750844;30;20028;-79
2022/01/11 10:31:52;;;;;;;43.85;19.50;;;;;;;1.65;100.00;102832.59;4752945;30;20459;-80
2022/01/11 10:34:29;;;;;;;46.47;23.25;;;;;;;1.77;100.00;102833.66;4752087;30;20044;-80
2022/01/11 10:36:55;;;;;;;49.55;24.75;;;;;;;1.82;100.00;102832.44;4751159;30;20033;-80
2022/01/11 10:39:27;;;;;;;44.13;24.67;;;;;;;1.86;100.00;102818.03;4757050;30;20105;-79
2022/01/11 10:41:52;;;;;;;50.83;25.83;;;;;;;2.00;100.00;102821.66;4752069;30;20102;-80
2022/01/11 10:44:47;;;;;;;55.72;27.13;;;;;;;2.04;100.00;102831.97;4753536;30;20476;-80
2022/01/11 10:47:18;;;;;;;61.47;26.23;;;;;;;2.01;100.00;102808.28;4756071;30;20032;-80
2022/01/11 10:49:43;;;;;;;50.20;26.55;;;;;;;2.10;100.00;102818.34;4756339;30;20066;-79
2022/01/11 10:52:18;;;;;;;56.78;29.13;;;;;;;2.13;100.00;102817.28;4753301;30;20059;-80
2022/01/11 10:54:44;;;;;;;56.42;28.60;;;;;;;2.12;100.00;102812.94;4751320;30;20099;-80
2022/01/11 10:57:18;;;;;;;51.95;28.35;;;;;;;2.13;100.00;102812.00;4751257;30;20448;-80
2022/01/11 10:59:43;;;;;;;57.30;28.60;;;;;;;2.19;100.00;102816.91;4751570;30;20048;-80
2022/01/11 11:02:23;;;;;;;51.30;28.65;;;;;;;2.11;100.00;102795.28;4750691;30;20055;-79
2022/01/11 11:04:49;;;;;;;56.22;28.92;;;;;;;2.23;100.00;102814.94;4747818;30;20036;-79
2022/01/11 11:07:15;;;;;;;51.08;28.40;;;;;;;2.17;100.00;102788.75;4735075;30;20028;-79